Time;durP1;ratioP1;P1;durP2;ratioP2;P2;SDS_P1;SDS_P2;PMS_P1;PMS_P2;Temp;Humidity;BMP_temperature;BMP_pressure;BME280_temperature;BME280_humidity;BME280_pressure;Samples;Min_cycle;Max_cycle;Signal;HPM_P1;HPM_P2
2022/09/12 00:00:30;;;;;;;8.63;7.07;;;26.90;99.90;;;;;;5013979;23;20049;-53
2022/09/12 00:02:57;;;;;;;13.82;6.47;;;26.90;99.90;;;;;;5011989;28;20160;-52
2022/09/12 00:05:24;;;;;;;10.57;5.22;;;26.90;99.90;;;;;;5011740;28;20033;-52
2022/09/12 00:07:49;;;;;;;7.85;4.05;;;26.80;99.90;;;;;;5011866;28;20026;-53
2022/09/12 00:10:16;;;;;;;13.02;3.63;;;26.80;99.90;;;;;;5011791;28;20024;-52
2022/09/12 00:12:42;;;;;;;7.10;3.88;;;26.80;99.90;;;;;;5011887;28;20113;-53
2022/09/12 00:15:09;;;;;;;11.02;3.83;;;26.80;99.90;;;;;;5011850;28;20146;-52
2022/09/12 00:17:36;;;;;;;12.75;4.55;;;26.80;99.90;;;;;;5011748;28;20044;-53
2022/09/12 00:20:06;;;;;;;6.65;3.60;;;26.80;99.90;;;;;;5011565;28;20069;-52
2022/09/12 00:22:32;;;;;;;7.35;3.50;;;26.80;99.90;;;;;;5011518;28;20029;-54
2022/09/12 00:24:57;;;;;;;8.20;3.20;;;26.80;99.90;;;;;;5011533;28;20096;-53
2022/09/12 00:27:23;;;;;;;4.90;3.00;;;26.80;99.90;;;;;;5011573;28;20458;-53
2022/09/12 00:29:49;;;;;;;5.38;2.40;;;26.80;99.90;;;;;;5011436;28;20120;-53
2022/09/12 00:32:15;;;;;;;9.63;2.05;;;26.80;99.90;;;;;;5011634;28;20036;-54
2022/09/12 00:34:41;;;;;;;13.35;2.22;;;26.80;99.90;;;;;;5011773;28;20034;-53
2022/09/12 00:37:06;;;;;;;6.55;1.95;;;26.80;99.90;;;;;;5011757;28;20026;-54
2022/09/12 00:39:32;;;;;;;4.95;2.00;;;26.90;99.90;;;;;;5011490;28;20083;-54
2022/09/12 00:41:58;;;;;;;3.55;2.08;;;26.90;99.90;;;;;;5011579;28;20091;-54
2022/09/12 00:44:24;;;;;;;1.77;1.20;;;26.90;99.90;;;;;;5011378;28;20058;-54
2022/09/12 00:46:58;;;;;;;4.65;1.70;;;27.00;99.90;;;;;;5011466;28;20026;-54
2022/09/12 00:50:22;;;;;;;4.75;1.33;;;27.00;99.90;;;;;;5011964;28;20022;-52
2022/09/12 00:52:56;;;;;;;2.40;1.25;;;27.00;99.90;;;;;;4997034;28;20390;-52
2022/09/12 00:55:36;;;;;;;2.78;1.27;;;27.10;99.90;;;;;;5015118;28;20113;-52
2022/09/12 00:58:11;;;;;;;3.25;0.90;;;27.10;99.90;;;;;;5015193;28;20026;-53
2022/09/12 01:00:37;;;;;;;5.65;1.98;;;27.10;99.90;;;;;;5003962;23;20043;-54
2022/09/12 01:03:15;;;;;;;2.67;1.75;;;27.20;99.90;;;;;;4974748;28;20070;-52
2022/09/12 01:05:50;;;;;;;4.03;2.05;;;27.20;99.90;;;;;;4976202;28;20030;-54
2022/09/12 01:08:17;;;;;;;9.05;2.10;;;27.20;99.90;;;;;;4976144;28;20030;-53
2022/09/12 01:10:43;;;;;;;3.70;2.33;;;27.20;99.90;;;;;;4976184;28;20030;-54
2022/09/12 01:13:10;;;;;;;8.10;2.03;;;27.10;99.90;;;;;;4976093;28;20098;-53
2022/09/12 01:15:37;;;;;;;4.10;1.77;;;27.20;99.90;;;;;;4975661;28;20066;-54
2022/09/12 01:18:29;;;;;;;6.97;2.47;;;27.20;99.90;;;;;;4976012;28;20270;-52
2022/09/12 01:21:15;;;;;;;12.80;2.15;;;27.10;99.90;;;;;;4975697;28;20023;-53
2022/09/12 01:24:00;;;;;;;4.28;1.90;;;27.10;99.90;;;;;;4975866;28;20015;-53
2022/09/12 01:26:31;;;;;;;12.80;2.55;;;27.00;99.90;;;;;;4975714;28;20023;-54
2022/09/12 01:29:21;;;;;;;6.45;2.45;;;27.00;99.90;;;;;;4975598;28;20261;-53
2022/09/12 01:32:02;;;;;;;7.25;2.15;;;27.00;99.90;;;;;;4975518;28;20114;-53
2022/09/12 01:35:03;;;;;;;9.75;2.70;;;27.10;99.90;;;;;;4975404;28;20481;-53
2022/09/12 01:37:34;;;;;;;4.03;3.00;;;27.00;99.90;;;;;;4975462;28;20031;-54
2022/09/12 01:40:20;;;;;;;10.63;4.38;;;26.90;99.90;;;;;;4975395;28;20359;-53
2022/09/12 01:42:56;;;;;;;9.20;4.43;;;26.80;99.90;;;;;;4975475;28;20031;-53
2022/09/12 01:45:53;;;;;;;9.00;4.95;;;26.70;99.90;;;;;;4975298;28;20086;-53
2022/09/12 01:48:23;;;;;;;12.45;4.70;;;26.70;99.90;;;;;;4975148;28;20027;-53
2022/09/12 01:51:03;;;;;;;13.98;5.53;;;26.60;99.90;;;;;;4975144;28;20077;-53
2022/09/12 01:53:36;;;;;;;6.03;4.10;;;26.60;99.90;;;;;;4975105;28;20037;-53
2022/09/12 01:56:14;;;;;;;8.80;4.13;;;26.60;99.90;;;;;;4975085;28;20074;-53
2022/09/12 02:01:54;;;;;;;7.88;2.20;;;26.60;99.90;;;;;;5010737;28;20188;-53
2022/09/12 02:04:50;;;;;;;7.15;2.97;;;26.60;99.90;;;;;;5014039;28;20034;-53
2022/09/12 02:07:22;;;;;;;9.73;3.50;;;26.60;99.90;;;;;;4998357;28;20041;-53
2022/09/12 02:10:01;;;;;;;14.73;3.60;;;26.60;99.90;;;;;;5013809;28;20022;-53
2022/09/12 02:12:34;;;;;;;8.65;3.58;;;26.60;99.90;;;;;;5014018;28;20208;-53
2022/09/12 02:15:06;;;;;;;4.47;3.20;;;26.60;99.90;;;;;;5013735;28;20040;-53
2022/09/12 02:17:38;;;;;;;11.43;4.00;;;26.60;99.90;;;;;;5013629;28;20030;-53
2022/09/12 02:20:18;;;;;;;8.75;4.57;;;26.60;99.90;;;;;;5013797;28;20065;-53
2022/09/12 02:22:45;;;;;;;10.60;3.75;;;26.60;99.90;;;;;;5013740;28;20160;-53
2022/09/12 02:25:16;;;;;;;8.07;4.68;;;26.50;99.90;;;;;;5013569;28;20022;-53
2022/09/12 02:27:48;;;;;;;23.60;4.82;;;26.50;99.90;;;;;;5013473;28;20038;-58
2022/09/12 02:30:15;;;;;;;6.80;4.07;;;26.50;99.90;;;;;;5013576;28;20026;-54
2022/09/12 02:33:00;;;;;;;10.68;3.95;;;26.50;99.90;;;;;;5013391;28;20485;-53
2022/09/12 02:36:02;;;;;;;6.07;2.83;;;26.40;99.90;;;;;;5013336;28;20375;-53
2022/09/12 02:38:43;;;;;;;4.32;2.42;;;26.40;99.90;;;;;;5013317;28;20029;-53
2022/09/12 02:41:09;;;;;;;6.32;1.95;;;26.40;99.90;;;;;;5013170;28;20101;-53
2022/09/12 02:43:36;;;;;;;4.45;2.05;;;26.40;99.90;;;;;;5013185;28;20109;-54
2022/09/12 02:46:06;;;;;;;3.70;1.60;;;26.40;99.90;;;;;;5013393;28;20026;-53
2022/09/12 02:48:36;;;;;;;6.32;2.13;;;26.50;99.90;;;;;;5013251;28;20030;-53
2022/09/12 02:51:02;;;;;;;5.95;2.40;;;26.50;99.90;;;;;;5013144;28;20100;-53
2022/09/12 02:53:28;;;;;;;7.45;2.05;;;26.50;99.90;;;;;;5012981;28;20466;-53
2022/09/12 02:55:54;;;;;;;5.82;2.30;;;26.60;99.90;;;;;;5012971;28;20041;-53
2022/09/12 02:58:25;;;;;;;7.70;4.43;;;26.60;99.90;;;;;;5012979;28;20079;-53
2022/09/12 03:01:10;;;;;;;7.80;5.35;;;26.60;99.90;;;;;;4998264;23;20117;-53
2022/09/12 03:03:51;;;;;;;7.53;5.47;;;26.60;99.90;;;;;;4973765;28;20079;-52
2022/09/12 03:06:29;;;;;;;16.17;7.60;;;26.60;99.90;;;;;;4973988;28;20030;-53
2022/09/12 03:09:29;;;;;;;11.80;7.97;;;26.60;99.90;;;;;;4973804;28;20019;-53
2022/09/12 03:12:01;;;;;;;10.32;9.15;;;26.60;99.90;;;;;;4972580;28;20055;-52
2022/09/12 03:14:35;;;;;;;14.07;8.73;;;26.50;99.90;;;;;;4972550;28;20031;-52
2022/09/12 03:17:07;;;;;;;11.40;6.60;;;26.50;99.90;;;;;;4973705;28;20074;-52
2022/09/12 03:19:42;;;;;;;12.30;6.68;;;26.50;99.90;;;;;;4973617;28;20387;-53
2022/09/12 03:22:23;;;;;;;13.25;6.53;;;26.40;99.90;;;;;;4973662;28;20030;-52
2022/09/12 03:25:00;;;;;;;12.70;7.38;;;26.30;99.90;;;;;;4973698;28;20027;-52
2022/09/12 03:27:33;;;;;;;13.88;7.10;;;26.30;99.90;;;;;;4973601;28;20023;-53
2022/09/12 03:29:59;;;;;;;12.25;5.95;;;26.30;99.90;;;;;;4973371;28;20035;-52
2022/09/12 03:33:01;;;;;;;14.77;6.25;;;26.30;99.90;;;;;;4973261;28;20027;-52
2022/09/12 03:35:26;;;;;;;6.43;4.25;;;26.20;99.90;;;;;;4951533;29;20535;-53
2022/09/12 03:37:52;;;;;;;11.27;5.97;;;26.20;99.90;;;;;;4968739;28;20043;-53
2022/09/12 03:40:18;;;;;;;11.25;5.78;;;26.30;99.90;;;;;;4972025;28;20027;-53
2022/09/12 03:42:44;;;;;;;12.70;5.25;;;26.40;99.90;;;;;;4973224;28;20054;-53
2022/09/12 03:45:10;;;;;;;12.15;6.03;;;26.40;99.90;;;;;;4973051;28;20031;-53
2022/09/12 03:47:36;;;;;;;9.32;2.97;;;26.50;99.90;;;;;;4972990;28;20031;-53
2022/09/12 03:50:03;;;;;;;8.20;4.63;;;26.50;99.90;;;;;;4973181;28;20059;-53
2022/09/12 03:52:29;;;;;;;9.00;4.57;;;26.60;99.90;;;;;;4972880;28;20114;-53
2022/09/12 03:54:55;;;;;;;6.65;4.90;;;26.70;99.90;;;;;;4972734;28;20126;-53
2022/09/12 03:57:21;;;;;;;12.13;5.45;;;26.70;99.90;;;;;;4973202;28;20471;-53
2022/09/12 03:59:48;;;;;;;9.43;4.43;;;26.80;99.90;;;;;;4985413;23;20488;-53
2022/09/12 04:02:15;;;;;;;14.30;5.25;;;26.80;99.90;;;;;;4973301;28;20411;-53
2022/09/12 04:04:42;;;;;;;11.80;3.90;;;26.80;99.90;;;;;;4973044;28;20031;-53
2022/09/12 04:07:11;;;;;;;11.77;4.75;;;26.80;99.90;;;;;;4972963;28;20038;-53
2022/09/12 04:09:36;;;;;;;10.20;4.85;;;26.80;99.90;;;;;;4972694;28;20471;-53
2022/09/12 04:12:03;;;;;;;8.93;4.53;;;26.80;99.90;;;;;;4972897;28;20085;-53
2022/09/12 04:14:29;;;;;;;7.78;4.00;;;26.80;99.90;;;;;;4972619;28;20027;-53
2022/09/12 04:16:54;;;;;;;8.98;4.43;;;26.90;99.90;;;;;;4972584;28;20046;-53
2022/09/12 04:19:20;;;;;;;9.73;4.75;;;26.80;99.90;;;;;;4973036;28;20022;-53
2022/09/12 04:21:46;;;;;;;7.55;3.55;;;26.80;99.90;;;;;;4972530;28;20497;-53
2022/09/12 04:24:12;;;;;;;5.90;3.40;;;26.80;99.90;;;;;;4972351;28;20077;-53
2022/09/12 04:26:37;;;;;;;12.25;3.35;;;26.80;99.90;;;;;;4972576;28;20392;-53
2022/09/12 04:29:03;;;;;;;5.45;3.38;;;26.90;99.90;;;;;;4971177;28;20117;-52
2022/09/12 04:31:29;;;;;;;6.57;3.08;;;26.90;99.90;;;;;;4972528;28;20030;-53
2022/09/12 04:33:57;;;;;;;5.90;2.78;;;26.90;99.90;;;;;;4972403;28;20023;-53
2022/09/12 04:36:24;;;;;;;5.85;2.65;;;26.90;99.90;;;;;;4972474;28;20031;-53
2022/09/12 04:38:50;;;;;;;7.72;2.50;;;26.90;99.90;;;;;;4972759;28;20019;-54
2022/09/12 04:41:25;;;;;;;5.25;2.47;;;26.90;99.90;;;;;;4972305;28;20039;-54
2022/09/12 04:43:53;;;;;;;9.55;2.22;;;26.90;99.90;;;;;;4972562;28;20490;-53
2022/09/12 04:46:19;;;;;;;3.08;1.73;;;27.00;99.90;;;;;;4972426;28;20027;-53
2022/09/12 04:48:45;;;;;;;4.82;2.10;;;27.00;99.90;;;;;;4972411;28;20035;-53
2022/09/12 04:51:17;;;;;;;3.40;2.10;;;27.00;99.90;;;;;;4972374;28;20042;-53
2022/09/12 04:53:52;;;;;;;4.97;2.55;;;27.00;99.90;;;;;;4972203;28;20026;-53
2022/09/12 04:56:19;;;;;;;7.75;2.22;;;27.00;99.90;;;;;;4972226;28;20039;-53
2022/09/12 04:58:45;;;;;;;5.65;2.65;;;27.10;99.90;;;;;;4972341;28;20024;-53
2022/09/12 05:01:13;;;;;;;6.03;2.97;;;27.10;99.90;;;;;;4972101;28;20050;-53
2022/09/12 05:03:44;;;;;;;6.85;2.85;;;27.10;99.90;;;;;;4972163;28;20019;-53
2022/09/12 05:06:13;;;;;;;5.78;2.72;;;27.10;99.90;;;;;;4972118;28;20034;-53
2022/09/12 05:08:39;;;;;;;5.63;4.05;;;27.20;99.90;;;;;;4972129;28;20538;-53
2022/09/12 05:11:10;;;;;;;6.18;3.50;;;27.20;99.90;;;;;;4972027;28;20042;-53
2022/09/12 05:13:36;;;;;;;5.60;3.60;;;27.20;99.90;;;;;;4972068;28;20022;-53
2022/09/12 05:16:04;;;;;;;8.80;4.22;;;27.20;99.90;;;;;;4971949;28;20479;-53
2022/09/12 05:18:31;;;;;;;6.45;4.38;;;27.30;99.90;;;;;;4972010;28;20054;-53
2022/09/12 05:21:02;;;;;;;9.45;4.90;;;27.30;99.90;;;;;;4972101;28;20050;-53
2022/09/12 05:23:29;;;;;;;6.70;3.40;;;27.30;99.90;;;;;;4972196;28;20062;-53
2022/09/12 05:25:57;;;;;;;5.43;2.40;;;27.30;99.90;;;;;;4971023;28;20435;-53
2022/09/12 05:28:24;;;;;;;3.40;2.58;;;27.30;99.90;;;;;;4972248;28;20023;-54
2022/09/12 05:30:59;;;;;;;10.05;3.50;;;27.30;99.90;;;;;;4972027;28;20039;-53
2022/09/12 05:33:25;;;;;;;4.50;2.70;;;27.30;99.90;;;;;;4972186;28;20035;-53
2022/09/12 05:35:51;;;;;;;7.25;3.15;;;27.40;99.90;;;;;;4971909;28;20081;-53
2022/09/12 05:38:17;;;;;;;3.83;2.22;;;27.40;99.90;;;;;;4975069;28;20399;-53
2022/09/12 05:40:43;;;;;;;5.57;3.05;;;27.40;99.90;;;;;;4975527;28;20082;-53
2022/09/12 05:43:11;;;;;;;7.20;2.67;;;27.40;99.90;;;;;;4975363;28;20378;-54
2022/09/12 05:45:37;;;;;;;4.88;2.53;;;27.40;99.90;;;;;;4975214;28;20503;-53
2022/09/12 05:48:03;;;;;;;6.30;2.28;;;27.40;99.90;;;;;;4975324;28;20033;-54
2022/09/12 05:50:29;;;;;;;4.13;2.17;;;27.40;99.90;;;;;;4975061;28;20023;-54
2022/09/12 05:52:56;;;;;;;5.55;2.75;;;27.40;99.90;;;;;;4975288;28;20109;-54
2022/09/12 05:55:23;;;;;;;7.90;2.63;;;27.40;99.90;;;;;;4975003;28;20039;-53
2022/09/12 05:57:49;;;;;;;5.80;2.38;;;27.40;99.90;;;;;;4975076;28;20038;-55
2022/09/12 06:00:16;;;;;;;7.75;3.05;;;27.50;99.90;;;;;;4973706;28;20050;-54
2022/09/12 06:02:42;;;;;;;10.38;2.88;;;27.50;99.90;;;;;;4975021;28;20026;-54
2022/09/12 06:05:08;;;;;;;10.75;3.67;;;27.50;99.90;;;;;;4974760;28;20031;-54
2022/09/12 06:07:34;;;;;;;13.77;3.10;;;27.50;99.90;;;;;;4974986;28;20048;-53
2022/09/12 06:10:01;;;;;;;6.03;2.92;;;27.50;99.90;;;;;;4974934;28;20109;-54
2022/09/12 06:12:30;;;;;;;8.80;3.50;;;27.50;99.90;;;;;;4975020;28;20110;-54
2022/09/12 06:14:55;;;;;;;9.32;3.05;;;27.50;99.90;;;;;;4974916;28;20031;-55
2022/09/12 06:17:21;;;;;;;12.52;3.38;;;27.50;99.90;;;;;;4974739;28;20038;-58
2022/09/12 06:19:50;;;;;;;10.85;3.90;;;27.50;99.90;;;;;;4974733;28;20027;-54
2022/09/12 06:22:17;;;;;;;14.85;4.95;;;27.50;99.90;;;;;;4974435;28;20041;-54
2022/09/12 06:24:43;;;;;;;11.20;4.60;;;27.50;99.90;;;;;;4974622;28;20034;-54
2022/09/12 06:27:09;;;;;;;9.68;3.95;;;27.50;99.90;;;;;;4974407;28;20436;-54
2022/09/12 06:29:34;;;;;;;7.63;2.97;;;27.50;99.90;;;;;;4974327;28;20065;-54
2022/09/12 06:32:01;;;;;;;12.63;3.47;;;27.50;99.90;;;;;;4974330;28;20375;-54
2022/09/12 06:34:27;;;;;;;23.23;4.63;;;27.50;99.90;;;;;;4974443;28;20030;-53
2022/09/12 06:36:52;;;;;;;5.63;2.83;;;27.60;99.90;;;;;;4974364;28;20031;-53
2022/09/12 06:39:21;;;;;;;14.63;4.20;;;27.60;99.90;;;;;;4974245;28;20029;-54
2022/09/12 06:41:50;;;;;;;19.25;4.85;;;27.60;99.90;;;;;;4974128;28;20019;-53
2022/09/12 06:44:21;;;;;;;12.40;2.97;;;27.60;99.90;;;;;;4974100;28;20031;-54
2022/09/12 06:46:47;;;;;;;11.40;2.80;;;27.60;99.90;;;;;;4974057;28;20027;-54
2022/09/12 06:49:14;;;;;;;9.98;2.72;;;27.60;99.90;;;;;;4973830;28;20467;-56
2022/09/12 06:51:43;;;;;;;11.35;3.33;;;27.60;99.90;;;;;;4974047;28;20146;-54
2022/09/12 06:54:12;;;;;;;6.32;2.60;;;27.70;99.90;;;;;;4973857;28;20135;-54
2022/09/12 06:56:38;;;;;;;13.80;2.90;;;27.70;99.90;;;;;;4973863;28;20161;-54
2022/09/12 06:59:04;;;;;;;10.32;3.20;;;27.70;99.90;;;;;;4973946;28;20102;-54
2022/09/12 07:01:30;;;;;;;12.23;2.65;;;27.70;99.90;;;;;;4973813;28;20046;-54
2022/09/12 07:04:01;;;;;;;6.80;2.28;;;27.80;99.90;;;;;;4973961;28;20019;-54
2022/09/12 07:06:33;;;;;;;5.03;2.42;;;27.80;99.90;;;;;;4973873;28;20094;-54
2022/09/12 07:09:03;;;;;;;7.07;2.63;;;27.80;99.90;;;;;;4973844;28;20026;-54
2022/09/12 07:11:31;;;;;;;5.30;2.30;;;27.90;99.90;;;;;;4973789;28;20418;-54
2022/09/12 07:13:59;;;;;;;7.47;2.28;;;27.90;99.90;;;;;;4973510;28;20033;-54
2022/09/12 07:16:25;;;;;;;5.60;2.45;;;28.00;99.90;;;;;;4973508;28;20039;-54
2022/09/12 07:18:53;;;;;;;8.35;2.60;;;28.00;99.90;;;;;;4973421;28;20109;-54
2022/09/12 07:21:19;;;;;;;7.22;2.53;;;28.10;99.90;;;;;;4973378;28;20089;-54
2022/09/12 07:23:45;;;;;;;4.65;2.50;;;28.10;99.90;;;;;;4973266;28;20027;-54
2022/09/12 07:26:13;;;;;;;8.65;2.38;;;28.20;99.90;;;;;;4973144;28;20102;-53
2022/09/12 07:28:38;;;;;;;;;;;28.20;99.90;;;;;;4973681;28;20031;-54
2022/09/12 07:31:10;;;;;;;5.82;2.97;;;28.30;99.90;;;;;;4973179;28;19906;-53
2022/09/12 07:33:36;;;;;;;5.80;2.17;;;28.30;99.90;;;;;;4973155;28;20019;-54
2022/09/12 07:36:09;;;;;;;8.38;2.55;;;28.30;99.90;;;;;;4973350;28;20034;-53
2022/09/12 07:38:35;;;;;;;6.05;2.05;;;28.40;99.90;;;;;;4973160;28;20313;-53
2022/09/12 07:41:08;;;;;;;4.03;2.10;;;28.40;99.90;;;;;;4973104;28;20034;-53
2022/09/12 07:43:34;;;;;;;6.25;2.35;;;28.40;99.90;;;;;;4972935;28;20385;-53
2022/09/12 07:46:00;;;;;;;5.13;2.47;;;28.50;99.90;;;;;;4973357;28;20031;-53
2022/09/12 07:48:26;;;;;;;7.63;2.30;;;28.50;99.90;;;;;;4973063;28;20482;-54
2022/09/12 07:51:03;;;;;;;5.32;1.95;;;28.60;99.90;;;;;;4972943;28;20106;-54
2022/09/12 07:53:34;;;;;;;5.82;2.50;;;28.60;99.90;;;;;;4972866;28;20125;-55
2022/09/12 07:56:01;;;;;;;3.92;1.70;;;28.60;99.90;;;;;;4972869;28;20066;-54
2022/09/12 07:58:29;;;;;;;3.20;1.83;;;28.60;99.90;;;;;;4972599;28;20018;-54
2022/09/12 08:01:06;;;;;;;5.05;1.50;;;28.70;99.90;;;;;;4972126;28;20059;-54
2022/09/12 08:03:31;;;;;;;3.80;2.00;;;28.70;99.90;;;;;;4972702;28;20464;-54
2022/09/12 08:06:06;;;;;;;4.75;1.70;;;28.70;99.90;;;;;;4972604;28;20034;-54
2022/09/12 08:08:32;;;;;;;5.63;1.85;;;28.70;99.90;;;;;;4972885;28;20023;-54
2022/09/12 08:10:59;;;;;;;4.20;1.63;;;28.80;99.90;;;;;;4972665;28;20027;-54
2022/09/12 08:13:26;;;;;;;4.68;1.90;;;28.80;99.90;;;;;;4972629;28;20462;-56
2022/09/12 08:15:59;;;;;;;5.88;2.25;;;28.80;99.90;;;;;;4972431;28;20070;-55
2022/09/12 08:18:29;;;;;;;6.68;2.03;;;28.90;99.90;;;;;;4972486;28;20149;-55
2022/09/12 08:21:00;;;;;;;3.45;2.00;;;28.90;99.90;;;;;;4972427;28;20900;-54
2022/09/12 08:23:29;;;;;;;2.05;1.30;;;28.90;99.90;;;;;;4972393;28;20042;-54
2022/09/12 08:26:03;;;;;;;3.78;1.70;;;28.90;99.90;;;;;;4972336;28;20023;-54
2022/09/12 08:28:30;;;;;;;4.97;1.48;;;28.90;99.90;;;;;;4972350;28;20463;-54
2022/09/12 08:31:01;;;;;;;7.40;1.83;;;29.00;99.90;;;;;;4972448;28;20058;-54
2022/09/12 08:33:31;;;;;;;4.75;2.30;;;29.00;99.90;;;;;;4972631;28;20043;-54
2022/09/12 08:36:15;;;;;;;10.02;2.30;;;29.10;99.90;;;;;;4972223;28;20078;-54
2022/09/12 08:38:43;;;;;;;4.15;1.73;;;29.10;99.90;;;;;;4970946;28;20111;-54
2022/09/12 08:41:09;;;;;;;5.40;2.28;;;29.10;99.90;;;;;;4972128;28;20117;-54
2022/09/12 08:43:47;;;;;;;5.55;1.95;;;29.10;99.90;;;;;;4972348;28;20115;-54
2022/09/12 08:46:21;;;;;;;5.43;2.30;;;29.10;99.90;;;;;;4972133;28;20041;-54
2022/09/12 08:48:47;;;;;;;10.43;2.10;;;29.10;99.90;;;;;;4972185;28;20019;-54
2022/09/12 08:51:17;;;;;;;12.53;2.80;;;29.10;99.90;;;;;;4972429;28;20486;-54
2022/09/12 08:53:46;;;;;;;8.35;2.58;;;29.10;99.90;;;;;;4972119;28;20281;-53
2022/09/12 08:56:11;;;;;;;4.75;2.17;;;29.10;99.90;;;;;;4971981;28;20050;-53
2022/09/12 08:58:43;;;;;;;5.18;1.70;;;29.10;99.90;;;;;;4972177;28;20031;-55
2022/09/12 09:01:34;;;;;;;8.20;1.95;;;29.20;99.90;;;;;;4971823;28;20059;-54
2022/09/12 09:04:03;;;;;;;6.25;2.03;;;29.20;99.90;;;;;;4971892;28;20077;-54
2022/09/12 09:06:41;;;;;;;6.35;1.90;;;29.20;99.90;;;;;;4971966;28;20031;-54
2022/09/12 09:09:22;;;;;;;8.50;2.20;;;29.20;99.90;;;;;;4972218;28;20466;-54
2022/09/12 09:12:26;;;;;;;5.43;1.98;;;29.30;99.90;;;;;;4974573;28;20027;-54
2022/09/12 09:15:20;;;;;;;9.18;1.80;;;29.30;99.90;;;;;;4975263;28;20450;-54
2022/09/12 09:17:51;;;;;;;3.58;1.60;;;29.30;99.90;;;;;;4975676;28;20367;-54
2022/09/12 09:20:35;;;;;;;5.15;1.92;;;29.30;99.90;;;;;;4975634;28;20022;-54
2022/09/12 09:23:16;;;;;;;6.43;2.75;;;29.30;99.90;;;;;;4975598;28;20027;-54
2022/09/12 09:25:47;;;;;;;7.32;2.80;;;29.40;99.90;;;;;;4975378;28;20035;-54
2022/09/12 09:28:28;;;;;;;8.10;2.88;;;29.40;99.90;;;;;;4975501;28;20026;-54
2022/09/12 09:30:54;;;;;;;10.50;2.50;;;29.40;99.90;;;;;;4975399;28;20022;-53
2022/09/12 09:33:24;;;;;;;3.22;1.60;;;29.50;99.90;;;;;;4975385;28;20043;-53
2022/09/12 09:36:04;;;;;;;7.13;2.50;;;29.50;99.90;;;;;;4973967;28;20504;-54
2022/09/12 09:39:15;;;;;;;9.95;2.72;;;29.50;99.90;;;;;;4975368;28;20483;-54
2022/09/12 09:42:17;;;;;;;5.22;2.25;;;29.50;99.90;;;;;;4974028;28;20475;-54
2022/09/12 09:44:46;;;;;;;4.38;1.83;;;29.50;99.90;;;;;;4975299;28;20034;-54
2022/09/12 09:47:12;;;;;;;8.35;1.98;;;29.60;99.90;;;;;;4975101;28;20114;-53
2022/09/12 09:49:38;;;;;;;5.03;2.45;;;29.60;99.90;;;;;;4975202;28;20110;-54
2022/09/12 09:52:07;;;;;;;5.07;2.33;;;29.60;99.90;;;;;;4975137;28;20034;-53
2022/09/12 09:54:46;;;;;;;8.32;3.15;;;29.60;99.90;;;;;;4974708;28;20475;-54
2022/09/12 09:57:33;;;;;;;5.72;2.17;;;29.70;99.90;;;;;;4975039;28;20027;-53
2022/09/12 10:00:20;;;;;;;3.40;2.10;;;29.70;99.90;;;;;;4974750;28;20047;-54
2022/09/12 10:03:04;;;;;;;;;;;29.70;99.90;;;;;;4975117;28;20057;-54
2022/09/12 10:05:34;;;;;;;4.22;2.28;;;29.80;99.90;;;;;;4974687;28;19999;-55
2022/09/12 10:08:00;;;;;;;5.78;2.75;;;29.80;99.90;;;;;;4974887;28;20035;-54
2022/09/12 10:10:25;;;;;;;3.90;2.47;;;29.80;99.90;;;;;;4974762;28;20022;-53
2022/09/12 10:13:16;;;;;;;7.85;3.00;;;29.80;99.90;;;;;;4974760;28;20085;-53
2022/09/12 10:15:56;;;;;;;5.80;2.78;;;29.90;99.90;;;;;;4974430;28;20038;-53
2022/09/12 10:18:41;;;;;;;5.20;2.33;;;29.90;99.90;;;;;;4974425;28;20023;-54
2022/09/12 10:21:15;;;;;;;10.98;3.78;;;29.90;99.90;;;;;;4974559;28;20101;-55
2022/09/12 10:23:42;;;;;;;6.88;3.15;;;29.90;99.90;;;;;;4973986;28;20031;-53
2022/09/12 10:26:11;;;;;;;6.30;3.03;;;30.00;99.90;;;;;;4974501;28;20039;-53
2022/09/12 10:28:40;;;;;;;5.55;2.88;;;30.00;99.90;;;;;;4974360;28;20041;-54
2022/09/12 10:31:09;;;;;;;8.98;3.92;;;29.90;99.90;;;;;;4974011;28;20122;-53
2022/09/12 10:33:44;;;;;;;8.55;3.33;;;29.90;99.90;;;;;;4974185;28;20082;-53
2022/09/12 10:36:10;;;;;;;8.20;3.70;;;30.00;99.90;;;;;;4974488;28;20372;-53
2022/09/12 10:38:36;;;;;;;6.05;2.63;;;30.00;99.90;;;;;;4974029;28;20030;-53
2022/09/12 10:41:08;;;;;;;4.47;2.85;;;30.00;99.90;;;;;;4972790;28;20447;-53
2022/09/12 10:43:38;;;;;;;6.50;3.33;;;30.00;99.90;;;;;;4974024;28;20475;-53
2022/09/12 10:46:16;;;;;;;6.45;3.85;;;30.00;99.90;;;;;;4973997;28;20022;-53
2022/09/12 10:49:11;;;;;;;6.88;3.35;;;30.00;99.90;;;;;;4974089;28;20390;-53
2022/09/12 10:51:37;;;;;;;5.03;2.75;;;30.00;99.90;;;;;;4973977;28;20112;-53
2022/09/12 10:54:07;;;;;;;9.30;3.50;;;30.00;99.90;;;;;;4972299;28;20624;-54
2022/09/12 10:57:20;;;;;;;8.82;3.65;;;30.00;99.90;;;;;;4976781;28;20078;-53
2022/09/12 11:00:10;;;;;;;11.00;3.65;;;30.10;99.90;;;;;;4961120;28;20490;-55
2022/09/12 11:03:09;;;;;;;7.53;3.30;;;30.20;99.90;;;;;;4968547;28;20067;-55
2022/09/12 11:05:59;;;;;;;6.90;2.95;;;30.20;99.90;;;;;;4972872;28;20418;-54
2022/09/12 11:08:54;;;;;;;10.73;3.05;;;30.30;99.90;;;;;;4972501;28;20418;-53
2022/09/12 11:11:43;;;;;;;5.82;3.55;;;30.20;99.90;;;;;;4964399;28;20031;-54
2022/09/12 11:14:18;;;;;;;8.68;3.30;;;30.30;99.90;;;;;;4968319;28;20038;-54
2022/09/12 11:16:58;;;;;;;10.13;3.65;;;30.30;99.90;;;;;;4967905;28;20113;-55
2022/09/12 11:19:33;;;;;;;7.70;3.03;;;30.30;99.90;;;;;;4970811;28;20475;-51
2022/09/12 11:22:19;;;;;;;8.60;3.13;;;30.30;99.90;;;;;;4973131;28;20023;-50
2022/09/12 11:25:03;;;;;;;9.57;4.72;;;30.20;99.90;;;;;;4970967;28;20026;-54
2022/09/12 11:27:48;;;;;;;8.63;3.75;;;30.20;99.90;;;;;;4965214;28;20023;-51
2022/09/12 11:30:16;;;;;;;9.45;4.65;;;30.20;99.90;;;;;;4961709;28;20458;-51
2022/09/12 11:33:10;;;;;;;7.40;3.17;;;30.10;99.90;;;;;;4973428;28;20098;-55
2022/09/12 11:35:47;;;;;;;8.20;2.90;;;30.10;99.90;;;;;;4965571;28;20502;-54
2022/09/12 11:38:34;;;;;;;8.75;3.10;;;30.10;99.90;;;;;;4960813;28;20109;-54
2022/09/12 11:41:02;;;;;;;;;;;30.00;99.90;;;;;;4972736;28;20411;-54
2022/09/12 11:43:49;;;;;;;7.82;2.97;;;30.00;99.90;;;;;;4963792;28;20192;-55
2022/09/12 11:46:35;;;;;;;8.25;3.90;;;30.00;99.90;;;;;;4968817;28;20033;-54
2022/09/12 11:49:12;;;;;;;7.80;3.03;;;30.00;99.90;;;;;;4969029;28;20065;-54
2022/09/12 11:51:53;;;;;;;8.90;2.90;;;30.00;99.90;;;;;;4971690;28;20029;-55
2022/09/12 11:54:25;;;;;;;7.18;2.30;;;30.00;99.90;;;;;;4958448;28;20041;-56
2022/09/12 11:57:24;;;;;;;10.75;3.28;;;30.00;99.90;;;;;;4964164;28;20035;-52
2022/09/12 12:00:16;;;;;;;9.90;3.53;;;30.00;99.90;;;;;;4970376;28;20431;-52
2022/09/12 12:03:13;;;;;;;8.15;3.03;;;30.00;99.90;;;;;;4964214;28;20038;-51
2022/09/12 12:06:04;;;;;;;9.13;3.13;;;30.00;99.90;;;;;;4953679;28;20129;-54
2022/09/12 12:08:36;;;;;;;5.20;2.63;;;30.00;99.90;;;;;;4972252;28;20023;-54
2022/09/12 12:11:03;;;;;;;10.50;3.00;;;30.00;99.90;;;;;;4968700;28;20098;-55
2022/09/12 12:13:32;;;;;;;;;;;30.00;99.90;;;;;;4969099;28;20058;-53
2022/09/12 12:16:04;;;;;;;10.50;3.42;;;30.00;99.90;;;;;;4967299;28;19969;-54
2022/09/12 12:18:32;;;;;;;9.27;2.65;;;30.10;99.90;;;;;;4962046;28;20274;-53
2022/09/12 12:21:30;;;;;;;8.57;2.50;;;30.00;99.90;;;;;;4952234;28;20038;-55
2022/09/12 12:24:06;;;;;;;8.00;2.67;;;30.00;99.90;;;;;;4969927;28;20057;-55
2022/09/12 12:26:38;;;;;;;6.40;3.10;;;30.00;99.90;;;;;;4966393;28;20055;-56
2022/09/12 12:29:08;;;;;;;10.15;4.50;;;30.00;99.90;;;;;;4952117;28;20479;-54
2022/09/12 12:32:00;;;;;;;6.82;3.60;;;30.00;99.90;;;;;;4963984;28;20078;-54
2022/09/12 12:34:34;;;;;;;9.13;4.20;;;30.00;99.90;;;;;;4971917;28;20022;-57
2022/09/12 12:37:18;;;;;;;7.80;3.28;;;30.00;99.90;;;;;;4952413;28;20103;-59
2022/09/12 12:39:47;;;;;;;7.97;3.13;;;30.00;99.90;;;;;;4952122;28;20031;-54
2022/09/12 12:42:34;;;;;;;7.65;2.95;;;30.00;99.90;;;;;;4951602;28;20031;-54
2022/09/12 12:45:02;;;;;;;8.23;2.33;;;30.00;99.90;;;;;;4960954;28;20031;-50
2022/09/12 12:47:35;;;;;;;7.90;2.08;;;30.00;99.90;;;;;;4975957;28;20023;-51
2022/09/12 12:50:19;;;;;;;7.63;2.90;;;30.00;99.90;;;;;;4970828;28;20050;-53
2022/09/12 12:52:45;;;;;;;5.93;2.28;;;30.00;99.90;;;;;;4959350;28;20027;-51
2022/09/12 12:55:34;;;;;;;5.75;3.22;;;30.00;99.90;;;;;;4963974;28;20045;-55
2022/09/12 12:58:02;;;;;;;4.30;1.88;;;30.00;99.90;;;;;;4958225;28;20035;-51
2022/09/12 13:00:36;;;;;;;4.60;1.80;;;30.00;99.90;;;;;;4954092;28;20047;-54
2022/09/12 13:03:08;;;;;;;11.23;2.40;;;30.00;99.90;;;;;;4957885;28;20029;-52
2022/09/12 13:05:47;;;;;;;12.70;2.25;;;30.10;99.90;;;;;;4955480;28;20431;-49
2022/09/12 13:08:15;;;;;;;10.77;2.28;;;30.10;99.90;;;;;;4955407;28;20031;-51
2022/09/12 13:10:50;;;;;;;6.60;1.73;;;30.10;99.90;;;;;;4956081;28;20467;-51
2022/09/12 13:13:38;;;;;;;5.78;3.17;;;30.20;99.90;;;;;;4957038;28;20026;-54
2022/09/12 13:16:04;;;;;;;6.63;1.80;;;30.20;99.90;;;;;;4955467;28;20479;-51
2022/09/12 13:18:45;;;;;;;8.35;2.08;;;30.30;99.90;;;;;;4965767;28;20042;-50